Pierre Regional Airport

Airport
ICAO code: 
KPIR
Summary
ICAO Region: 
NAM
Territory: 
Location: 
Pierre, South Dakota,
Coordinates: 
Aerial View: 
44° 22' 57" N, 100° 17' 8.999" W
Airport CFIT: 
Altimeter Temperature Error Correction
Metar
Observation
KPIR 021553Z AUTO 03007KT CLR 06/01 A2996 RMK AO2 SLP148 T00610011 $
Station
Pierre, Pierre Regional Airport
Date/Time
2021-12-02 15:53:00
Wind direction
30°
Wind speed
07 kts
Lowest cloud amount
n/a
Temperature
6.1°C
Dew point
1.1°C
Humidity
70%
Weather condition
n/a

Description

Pierre Regional Airport is a public use airport located 6 km east of the central business district of Pierre, a city in Hughes County, South Dakota.

Climatology

Humid continental climate (Köppen climate classification Dfa) - characterized by four seasons: cold, windy, snowy winters, mild springs, hot, humid summers, and crisp and relatively short autumns. Precipitation reaches its lowest in January and February and peaks in summer and latter half of spring.

Runways

Designator Length Width Surface Rops
7/25 2099 46 ASP Yes/Yes
13/31 2103 30 ASP Yes/Yes
Airport map: 
Aerial View: 

SKYbrary Partners:

Safety knowledge contributed by: